createdAt,value
2024-05-09T00:01:50.088Z,101375.42
2024-05-09T00:06:51.875Z,101377.63
2024-05-09T00:11:53.550Z,101375.80
2024-05-09T00:16:55.116Z,101377.05
2024-05-09T00:21:56.632Z,101373.84
2024-05-09T00:26:58.085Z,101372.06
2024-05-09T00:31:59.692Z,101367.41
2024-05-09T00:37:01.285Z,101374.60
2024-05-09T00:42:03.027Z,101378.50
2024-05-09T00:47:04.940Z,101385.59
2024-05-09T00:52:07.074Z,101389.55
2024-05-09T00:57:09.367Z,101392.52
2024-05-09T01:02:11.573Z,101391.09
2024-05-09T01:07:13.239Z,101382.69
2024-05-09T01:12:15.411Z,101377.08
2024-05-09T01:17:17.415Z,101380.01
2024-05-09T01:22:19.156Z,101382.80
2024-05-09T01:27:21.186Z,101382.36
2024-05-09T01:32:22.853Z,101382.43
2024-05-09T01:37:24.471Z,101388.05
2024-05-09T01:42:25.913Z,101389.70
2024-05-09T01:47:27.853Z,101392.05
2024-05-09T01:52:29.667Z,101390.57
2024-05-09T01:57:31.242Z,101392.75
2024-05-09T02:02:32.778Z,101392.35
2024-05-09T02:07:35.534Z,101391.13
2024-05-09T02:12:37.204Z,101394.48
2024-05-09T02:17:38.839Z,101392.41
2024-05-09T02:22:40.459Z,101394.98
2024-05-09T02:27:42.079Z,101394.80
2024-05-09T02:32:44.021Z,101391.45
2024-05-09T02:37:45.502Z,101395.64
2024-05-09T02:42:47.091Z,101396.23
2024-05-09T02:47:48.977Z,101402.40
2024-05-09T02:52:50.837Z,101403.81
2024-05-09T02:57:52.294Z,101401.87
2024-05-09T03:02:53.873Z,101403.68
2024-05-09T03:07:55.560Z,101403.90
2024-05-09T03:12:57.243Z,101404.76
2024-05-09T03:17:59.978Z,101404.60
2024-05-09T03:23:02.123Z,101400.98
2024-05-09T03:28:04.261Z,101402.86
2024-05-09T03:33:10.690Z,101399.13
2024-05-09T03:38:12.617Z,101403.91
2024-05-09T03:43:15.715Z,101403.10
2024-05-09T03:48:17.709Z,101405.96
2024-05-09T03:53:19.514Z,101402.58
2024-05-09T03:58:21.091Z,101407.14
2024-05-09T04:03:22.803Z,101408.30
2024-05-09T04:08:24.616Z,101406.16
2024-05-09T04:13:26.101Z,101412.41
2024-05-09T04:18:28.014Z,101420.39
2024-05-09T04:23:30.139Z,101418.72
2024-05-09T04:28:31.653Z,101421.83
2024-05-09T04:33:33.658Z,101419.05
2024-05-09T04:38:35.463Z,101421.81
2024-05-09T04:43:36.961Z,101414.84
2024-05-09T04:48:38.470Z,101410.77
2024-05-09T04:53:40.242Z,101411.34
2024-05-09T04:58:41.779Z,101414.30
2024-05-09T05:03:43.428Z,101413.42
2024-05-09T05:08:45.066Z,101421.36
2024-05-09T05:13:46.693Z,101421.44
2024-05-09T05:18:48.325Z,101421.10
2024-05-09T05:23:49.940Z,101425.73
2024-05-09T05:28:51.766Z,101426.70
2024-05-09T05:33:53.363Z,101427.63
2024-05-09T05:38:55.015Z,101426.70
2024-05-09T05:43:56.470Z,101429.48
2024-05-09T05:48:58.137Z,101429.35
2024-05-09T05:53:59.673Z,101433.59
2024-05-09T05:59:01.148Z,101429.92
2024-05-09T06:04:02.846Z,101420.57
2024-05-09T06:09:04.330Z,101422.09
2024-05-09T06:14:05.913Z,101420.01
2024-05-09T06:19:07.391Z,101418.89
2024-05-09T06:24:08.938Z,101419.23
2024-05-09T06:29:10.490Z,101416.94
2024-05-09T06:34:12.572Z,101416.73
2024-05-09T06:39:14.276Z,101419.27
2024-05-09T06:44:15.855Z,101415.07
2024-05-09T06:49:17.710Z,101415.36
2024-05-09T06:54:19.526Z,101415.85
2024-05-09T06:59:20.982Z,101412.49
2024-05-09T07:04:22.629Z,101412.63
2024-05-09T07:09:24.237Z,101416.52
2024-05-09T07:14:26.128Z,101417.83
2024-05-09T07:19:27.788Z,101415.91
2024-05-09T07:24:29.306Z,101408.95
2024-05-09T07:29:30.802Z,101406.67
2024-05-09T07:34:32.834Z,101405.06
2024-05-09T07:39:34.597Z,101403.39
2024-05-09T07:44:36.242Z,101402.12
2024-05-09T07:54:44.763Z,101401.69
2024-05-09T07:59:46.232Z,101400.06
2024-05-09T08:04:47.723Z,101395.73
2024-05-09T08:09:49.408Z,101392.59
2024-05-09T08:14:52.917Z,101386.17
2024-05-09T08:19:55.994Z,101388.56
2024-05-09T08:24:58.443Z,101384.58
2024-05-09T08:30:00.346Z,101383.47
2024-05-09T08:35:02.279Z,101383.78
2024-05-09T08:40:06.541Z,101381.47
2024-05-09T08:45:13.431Z,101376.17
2024-05-09T08:50:28.389Z,101375.11
2024-05-09T08:55:41.542Z,101369.65
2024-05-09T09:00:46.469Z,101360.63
2024-05-09T09:05:58.350Z,101360.30
2024-05-09T09:11:00.102Z,101361.23
2024-05-09T09:16:02.679Z,101359.50
2024-05-09T09:21:05.303Z,101359.37
2024-05-09T09:26:06.718Z,101354.30
2024-05-09T09:31:08.262Z,101354.79
2024-05-09T09:36:14.050Z,101352.47
2024-05-09T09:41:18.139Z,101351.45
2024-05-09T09:46:20.359Z,101343.36
2024-05-09T09:51:22.563Z,101337.11
2024-05-09T09:56:26.344Z,101332.84
2024-05-09T10:01:28.081Z,101334.99
2024-05-09T10:06:31.309Z,101326.70
2024-05-09T10:11:39.794Z,101327.49
2024-05-09T10:16:47.213Z,101331.73
2024-05-09T10:21:49.138Z,101336.23
2024-05-09T10:26:53.831Z,101335.39
2024-05-09T10:31:59.645Z,101332.65
2024-05-09T10:37:04.160Z,101330.69
2024-05-09T10:42:09.892Z,101323.66
2024-05-09T10:47:11.605Z,101315.81
2024-05-09T10:52:13.551Z,101310.58
2024-05-09T10:57:15.452Z,101306.55
2024-05-09T11:02:18.564Z,101304.86
2024-05-09T11:07:21.408Z,101299.38
2024-05-09T11:12:24.766Z,101297.27
2024-05-09T11:17:26.763Z,101292.14
2024-05-09T11:22:32.915Z,101292.72
2024-05-09T11:27:35.512Z,101277.33
2024-05-09T11:32:37.482Z,101273.77
2024-05-09T11:37:40.915Z,101276.19
2024-05-09T11:42:42.560Z,101269.55
2024-05-09T11:47:44.036Z,101269.09
2024-05-09T11:52:45.678Z,101263.27
2024-05-09T11:57:47.147Z,101257.70
2024-05-09T12:02:48.723Z,101253.91
2024-05-09T12:07:53.647Z,101252.91
2024-05-09T12:12:55.540Z,101248.05
2024-05-09T12:17:59.926Z,101243.27
2024-05-09T12:23:03.563Z,101237.92
2024-05-09T12:28:06.071Z,101234.03
2024-05-09T12:33:09.645Z,101230.45
2024-05-09T12:38:11.351Z,101223.35
2024-05-09T12:43:12.845Z,101216.00
2024-05-09T12:48:17.178Z,101207.98
2024-05-09T12:53:18.670Z,101201.75
2024-05-09T12:58:22.748Z,101196.56
2024-05-09T13:03:24.464Z,101194.73
2024-05-09T13:08:26.684Z,101183.60
2024-05-09T13:13:29.127Z,101183.22
2024-05-09T13:18:30.870Z,101181.02
2024-05-09T13:23:32.369Z,101176.29
2024-05-09T13:28:34.466Z,101174.16
2024-05-09T13:33:36.029Z,101169.25
2024-05-09T13:38:38.285Z,101166.30
2024-05-09T13:43:40.207Z,101167.54
2024-05-09T13:48:42.466Z,101157.24
2024-05-09T13:53:43.971Z,101160.46
2024-05-09T13:58:46.384Z,101157.45
2024-05-09T14:03:47.949Z,101151.93
2024-05-09T14:08:49.730Z,101145.41
2024-05-09T14:13:51.152Z,101136.00
2024-05-09T14:18:53.113Z,101127.32
2024-05-09T14:23:54.832Z,101124.46
2024-05-09T14:28:56.694Z,101118.11
2024-05-09T14:33:58.587Z,101118.03
2024-05-09T14:39:00.447Z,101106.77
2024-05-09T14:44:02.297Z,101101.59
2024-05-09T14:49:04.519Z,101100.23
2024-05-09T14:54:06.246Z,101092.52
2024-05-09T14:59:08.897Z,101078.01
2024-05-09T15:04:10.465Z,101077.73
2024-05-09T15:09:11.947Z,101077.04
2024-05-09T15:14:13.904Z,101070.87
2024-05-09T15:19:15.645Z,101070.00
2024-05-09T15:24:17.505Z,101067.67
2024-05-09T15:29:19.404Z,101065.45
2024-05-09T15:34:20.972Z,101061.81
2024-05-09T15:39:24.800Z,101052.67
2024-05-09T15:44:26.395Z,101042.77
2024-05-09T15:49:27.955Z,101049.87
2024-05-09T15:54:29.659Z,101043.66
2024-05-09T15:59:31.216Z,101041.73
2024-05-09T16:04:32.983Z,101039.66
2024-05-09T16:09:34.809Z,101035.52
2024-05-09T16:14:36.353Z,101023.57
2024-05-09T16:19:37.984Z,101021.77
2024-05-09T16:24:39.473Z,101019.73
2024-05-09T16:29:40.976Z,101014.30
2024-05-09T16:34:42.459Z,101018.55
2024-05-09T16:39:43.965Z,101014.75
2024-05-09T16:44:45.374Z,101014.61
2024-05-09T16:49:46.742Z,101015.35
2024-05-09T16:54:48.219Z,101006.15
2024-05-09T16:59:49.826Z,101008.58
2024-05-09T17:04:51.441Z,101005.66
2024-05-09T17:09:52.948Z,101004.05
2024-05-09T17:14:54.603Z,101004.17
2024-05-09T17:19:56.002Z,101010.63
2024-05-09T17:24:57.994Z,101008.66
2024-05-09T17:30:00.015Z,101006.20
2024-05-09T17:35:01.650Z,101004.41
2024-05-09T17:40:06.780Z,101004.56
2024-05-09T17:45:13.159Z,101004.87
2024-05-09T17:50:21.044Z,101005.38
2024-05-09T17:55:29.201Z,101009.48
2024-05-09T18:00:37.953Z,101009.94
2024-05-09T18:05:43.953Z,101014.41
2024-05-09T18:10:46.365Z,101017.98
2024-05-09T18:15:48.114Z,101022.93
2024-05-09T18:20:49.591Z,101025.14
2024-05-09T18:25:54.260Z,101029.75
2024-05-09T18:30:55.774Z,101034.09
2024-05-09T18:35:57.487Z,101039.40
2024-05-09T18:40:59.234Z,101044.13
2024-05-09T18:46:02.902Z,101047.98
2024-05-09T18:51:05.419Z,101055.85
2024-05-09T18:56:08.025Z,101060.54
2024-05-09T19:01:11.174Z,101064.85
2024-05-09T19:06:12.768Z,101062.44
2024-05-09T19:11:14.212Z,101057.90
2024-05-09T19:16:15.963Z,101059.59
2024-05-09T19:21:17.440Z,101055.38
2024-05-09T19:26:18.846Z,101057.75
2024-05-09T19:31:20.425Z,101059.41
2024-05-09T19:36:22.109Z,101062.41
2024-05-09T19:41:23.729Z,101065.42
2024-05-09T19:46:25.761Z,101065.27
2024-05-09T19:51:27.364Z,101067.05
2024-05-09T19:56:30.243Z,101062.66
2024-05-09T20:01:31.800Z,101060.52
2024-05-09T20:06:33.735Z,101061.52
2024-05-09T20:11:37.751Z,101066.69
2024-05-09T20:16:39.309Z,101068.38
2024-05-09T20:21:43.883Z,101068.35
2024-05-09T20:26:45.436Z,101076.11
2024-05-09T20:31:47.596Z,101075.95
2024-05-09T20:36:49.165Z,101074.06
2024-05-09T20:41:50.759Z,101071.77
2024-05-09T20:46:52.166Z,101074.94
2024-05-09T20:51:53.652Z,101071.70
2024-05-09T20:56:55.115Z,101066.38
2024-05-09T21:01:56.865Z,101067.80
2024-05-09T21:07:01.203Z,101071.67
2024-05-09T21:12:03.231Z,101074.71
2024-05-09T21:17:04.952Z,101072.34
2024-05-09T21:22:06.636Z,101069.81
2024-05-09T21:27:08.253Z,101063.36
2024-05-09T21:32:09.728Z,101059.70
2024-05-09T21:37:11.336Z,101063.02
2024-05-09T21:42:16.023Z,101062.00
2024-05-09T21:47:17.551Z,101064.25
2024-05-09T21:52:19.200Z,101068.89
2024-05-09T21:57:21.810Z,101069.46
2024-05-09T22:02:23.329Z,101069.57
2024-05-09T22:07:25.124Z,101072.77
2024-05-09T22:12:26.864Z,101071.42
2024-05-09T22:17:28.452Z,101072.39
2024-05-09T22:22:30.216Z,101068.60
2024-05-09T22:27:31.965Z,101062.92
2024-05-09T22:32:33.754Z,101060.80
2024-05-09T22:37:35.420Z,101057.45
2024-05-09T22:42:36.901Z,101057.91
2024-05-09T22:47:38.390Z,101057.70
2024-05-09T22:52:39.932Z,101056.31
2024-05-09T22:57:42.792Z,101056.92
2024-05-09T23:02:44.261Z,101063.00
2024-05-09T23:07:46.210Z,101055.57
2024-05-09T23:12:47.713Z,101056.30
2024-05-09T23:17:49.340Z,101052.30
2024-05-09T23:22:50.870Z,101049.25
2024-05-09T23:27:52.742Z,101049.38
2024-05-09T23:32:54.398Z,101050.44
2024-05-09T23:37:55.895Z,101044.05
2024-05-09T23:42:57.484Z,101036.48
2024-05-09T23:47:59.683Z,101031.29
2024-05-09T23:53:01.296Z,101027.59
2024-05-09T23:58:03.019Z,101026.81
